BIKF/KEF METAR and TAF weather

Enter ICAO airport designator
Station Type Date Time Source
BIKF METAR 2018/07/17 00:00 UTC NOAA

BIKF 170000Z 01014KT 9999 FEW020 08/06 Q1008


Station Type Date Time Source
BIKF Decoded METAR 2018/07/17 00:00 UTC NOAA

Keflavikurflugvollur, Iceland (BIKF) 63-58N 022-36W 54M
Jul 16, 2018 - 08:00 PM EDT / 2018.07.17 0000 UTC
Wind: from the N (010 degrees) at 16 MPH (14 KT):0
Visibility: greater than 7 mile(s):0
Sky conditions: mostly clear
Temperature: 46 F (8 C)
Dew Point: 42 F (6 C)
Relative Humidity: 87%
Pressure (altimeter): 29.77 in. Hg (1008 hPa)
ob: BIKF 170000Z 01014KT 9999 FEW020 08/06 Q1008
cycle: 0

Station Type Date Time Source
BIKF TAF 2018/07/16 21:59 UTC NOAA

TAF BIKF 161957Z 1621/1721 36018KT 9999 FEW022 SCT065 TX14/1712Z TN07/1703Z
BECMG 1711/1714 29010KT


Example: see airport list